Time;durP1;ratioP1;P1;durP2;ratioP2;P2;SDS_P1;SDS_P2;PMS_P1;PMS_P2;Temp;Humidity;BMP_temperature;BMP_pressure;BME280_temperature;BME280_humidity;BME280_pressure;Samples;Min_cycle;Max_cycle;Signal;HPM_P1;HPM_P2
2021/11/10 00:01:52;;;;;;;9.18;4.13;;;8.70;93.20;;;;;;5070581;28;20195;-68
2021/11/10 00:04:19;;;;;;;8.30;4.25;;;8.70;93.10;;;;;;5071170;28;20024;-68
2021/11/10 00:06:45;;;;;;;10.63;4.40;;;8.70;93.20;;;;;;5070182;28;20039;-69
2021/11/10 00:09:10;;;;;;;10.75;4.22;;;8.70;93.20;;;;;;5070168;28;20029;-69
2021/11/10 00:11:36;;;;;;;6.65;3.92;;;8.60;93.20;;;;;;5070277;28;20045;-69
2021/11/10 00:14:02;;;;;;;10.55;4.32;;;8.60;93.20;;;;;;5070423;28;20133;-69
2021/11/10 00:16:28;;;;;;;9.80;4.18;;;8.60;93.30;;;;;;5070866;28;20017;-69
2021/11/10 00:18:55;;;;;;;7.95;3.95;;;8.60;93.20;;;;;;5070952;28;20009;-69
2021/11/10 00:21:23;;;;;;;9.63;3.88;;;8.60;93.10;;;;;;5070463;28;20048;-69
2021/11/10 00:23:48;;;;;;;14.23;4.90;;;8.60;93.10;;;;;;5070376;28;20055;-71
2021/11/10 00:26:14;;;;;;;7.82;4.10;;;8.60;93.10;;;;;;5070240;28;20269;-68
2021/11/10 00:28:40;;;;;;;10.10;3.55;;;8.60;93.20;;;;;;5070239;28;20039;-69
2021/11/10 00:31:06;;;;;;;10.18;3.97;;;8.60;93.10;;;;;;5070735;28;20370;-69
2021/11/10 00:33:32;;;;;;;9.57;3.45;;;8.60;93.30;;;;;;5070416;28;20044;-69
2021/11/10 00:35:58;;;;;;;8.88;4.32;;;8.50;93.40;;;;;;5070202;28;20093;-67
2021/11/10 00:38:23;;;;;;;9.52;4.05;;;8.40;93.60;;;;;;5069978;28;20107;-69
2021/11/10 00:40:49;;;;;;;16.38;4.20;;;8.40;93.60;;;;;;5069884;28;20065;-68
2021/11/10 00:43:15;;;;;;;10.27;4.35;;;8.40;93.60;;;;;;5069432;28;20111;-69
2021/11/10 00:45:40;;;;;;;13.40;4.18;;;8.30;93.50;;;;;;5070105;28;20099;-69
2021/11/10 00:48:07;;;;;;;8.45;4.10;;;8.40;93.80;;;;;;5070086;28;20631;-69
2021/11/10 00:50:34;;;;;;;9.85;3.75;;;8.40;93.30;;;;;;5069970;28;20045;-68
2021/11/10 00:53:00;;;;;;;6.53;3.60;;;8.40;93.40;;;;;;5069999;28;20029;-68
2021/11/10 00:55:25;;;;;;;12.13;3.63;;;8.40;93.40;;;;;;5069705;28;20081;-68
2021/11/10 00:57:51;;;;;;;14.20;4.13;;;8.40;93.30;;;;;;5070454;28;20043;-69
2021/11/10 01:00:18;;;;;;;13.43;4.65;;;8.40;93.40;;;;;;5069951;28;20123;-68
2021/11/10 01:02:44;;;;;;;9.80;3.90;;;8.40;93.30;;;;;;5069834;28;20076;-69
2021/11/10 01:05:11;;;;;;;10.13;3.95;;;8.40;93.30;;;;;;5069682;28;20033;-69
2021/11/10 01:07:37;;;;;;;8.98;4.10;;;8.40;93.40;;;;;;5069897;28;20095;-69
2021/11/10 01:10:04;;;;;;;5.32;3.50;;;8.30;93.30;;;;;;5068974;28;20028;-68
2021/11/10 01:12:30;;;;;;;7.88;3.40;;;8.40;93.50;;;;;;5069612;28;20051;-68
2021/11/10 01:14:56;;;;;;;8.55;3.30;;;8.30;93.40;;;;;;5069510;28;20033;-68
2021/11/10 01:17:22;;;;;;;9.48;3.90;;;8.30;93.40;;;;;;5068706;28;20111;-69
2021/11/10 01:19:49;;;;;;;13.13;3.63;;;8.30;93.50;;;;;;5071982;28;20445;-68
2021/11/10 01:22:15;;;;;;;9.80;4.03;;;8.20;93.60;;;;;;5073848;28;20116;-69
2021/11/10 01:24:41;;;;;;;9.50;3.78;;;8.20;93.60;;;;;;5073374;28;20036;-68
2021/11/10 01:27:07;;;;;;;14.35;4.63;;;8.20;93.60;;;;;;5073378;28;20120;-69
2021/11/10 01:29:32;;;;;;;8.05;3.53;;;8.20;93.80;;;;;;5073348;28;20048;-68
2021/11/10 01:31:58;;;;;;;9.00;4.28;;;7.90;94.00;;;;;;5073546;28;20425;-69
2021/11/10 01:34:23;;;;;;;8.82;3.40;;;7.90;94.20;;;;;;5073089;28;20104;-69
2021/11/10 01:36:49;;;;;;;9.95;3.83;;;7.80;94.40;;;;;;5073615;28;20021;-68
2021/11/10 01:39:15;;;;;;;7.72;4.47;;;7.70;94.40;;;;;;5073129;28;20028;-69
2021/11/10 01:41:50;;;;;;;8.10;3.92;;;7.70;94.50;;;;;;5073129;28;20036;-68
2021/11/10 01:44:26;;;;;;;8.35;3.90;;;7.70;94.50;;;;;;5073230;28;20339;-69
2021/11/10 01:46:57;;;;;;;9.23;3.97;;;7.60;94.60;;;;;;5073286;28;20067;-69
2021/11/10 01:49:23;;;;;;;6.95;3.55;;;7.60;94.60;;;;;;5073008;28;20043;-69
2021/11/10 01:51:52;;;;;;;7.43;3.13;;;7.50;94.60;;;;;;5073457;28;20025;-69
2021/11/10 01:54:21;;;;;;;11.07;4.53;;;7.40;94.70;;;;;;5071788;28;20417;-69
2021/11/10 01:56:47;;;;;;;7.75;4.03;;;7.30;94.70;;;;;;5072972;28;20108;-68
2021/11/10 01:59:36;;;;;;;11.35;4.35;;;7.40;94.80;;;;;;5072987;28;20116;-68
2021/11/10 02:02:06;;;;;;;10.98;4.75;;;7.30;94.70;;;;;;5062346;28;20537;-69
2021/11/10 02:04:33;;;;;;;6.43;3.95;;;7.20;94.80;;;;;;5071570;28;20431;-68
2021/11/10 02:07:00;;;;;;;6.30;3.47;;;7.30;94.90;;;;;;5073031;28;20112;-67
2021/11/10 02:09:26;;;;;;;9.15;3.97;;;7.20;94.80;;;;;;5072566;28;20086;-68
2021/11/10 02:11:54;;;;;;;9.82;4.05;;;7.30;94.80;;;;;;5072437;28;20045;-69
2021/11/10 02:14:21;;;;;;;8.38;4.15;;;7.20;94.80;;;;;;5072537;28;20040;-69
2021/11/10 02:16:48;;;;;;;9.23;3.92;;;7.30;94.90;;;;;;5072573;28;20043;-69
2021/11/10 02:19:15;;;;;;;14.95;4.93;;;7.40;94.80;;;;;;5073012;28;20086;-69
2021/11/10 02:21:50;;;;;;;11.80;4.72;;;7.40;94.70;;;;;;5072543;28;20052;-69
2021/11/10 02:24:17;;;;;;;10.38;4.22;;;7.30;94.80;;;;;;5072496;28;20296;-69
2021/11/10 02:26:44;;;;;;;11.80;4.20;;;7.40;94.80;;;;;;5072281;28;20055;-67
2021/11/10 02:29:15;;;;;;;14.65;4.65;;;7.40;94.80;;;;;;5072464;28;20056;-70
2021/11/10 02:31:40;;;;;;;11.63;4.47;;;7.40;94.80;;;;;;5071265;28;20037;-68
2021/11/10 02:34:06;;;;;;;8.25;4.10;;;7.40;94.80;;;;;;5072567;28;20089;-68
2021/11/10 02:36:33;;;;;;;8.63;4.13;;;7.50;94.80;;;;;;5057820;28;20111;-68
2021/11/10 02:39:05;;;;;;;10.13;3.75;;;7.40;94.60;;;;;;5052177;28;20044;-68
2021/11/10 02:41:31;;;;;;;12.00;4.32;;;7.50;94.60;;;;;;5052016;28;20451;-68
2021/11/10 02:43:57;;;;;;;13.77;4.45;;;7.40;94.70;;;;;;5052071;28;20036;-68
2021/11/10 02:46:23;;;;;;;8.55;3.95;;;7.40;94.80;;;;;;5051021;28;20124;-69
2021/11/10 02:48:49;;;;;;;11.55;4.68;;;7.30;94.70;;;;;;5052399;28;20162;-69
2021/11/10 02:51:14;;;;;;;8.95;3.95;;;7.30;94.70;;;;;;5051846;28;20063;-69
2021/11/10 02:53:42;;;;;;;9.23;4.35;;;7.30;94.80;;;;;;5051821;28;20040;-69
2021/11/10 02:56:08;;;;;;;9.82;4.20;;;7.30;94.70;;;;;;5051916;28;20032;-69
2021/11/10 02:58:34;;;;;;;9.05;3.90;;;7.20;94.80;;;;;;5051804;28;20347;-69
2021/11/10 03:01:02;;;;;;;9.65;4.28;;;7.20;94.90;;;;;;5051999;28;20021;-69
2021/11/10 03:03:27;;;;;;;7.90;4.05;;;7.20;94.90;;;;;;5051394;28;20089;-68
2021/11/10 03:05:53;;;;;;;14.77;4.65;;;7.10;94.80;;;;;;5051549;28;20126;-68
2021/11/10 03:08:20;;;;;;;10.13;3.97;;;7.10;94.80;;;;;;5051717;28;20033;-68
2021/11/10 03:10:46;;;;;;;10.00;4.65;;;7.10;94.70;;;;;;5051526;28;20569;-68
2021/11/10 03:13:13;;;;;;;9.02;3.97;;;7.10;94.80;;;;;;5051592;28;20071;-69
2021/11/10 03:15:39;;;;;;;9.85;4.10;;;7.10;94.90;;;;;;5051123;28;20198;-69
2021/11/10 03:18:05;;;;;;;11.25;4.22;;;7.10;94.80;;;;;;5051190;28;20033;-68
2021/11/10 03:20:31;;;;;;;10.63;4.30;;;7.10;94.90;;;;;;5050036;28;20116;-68
2021/11/10 03:22:58;;;;;;;9.18;4.40;;;7.00;94.80;;;;;;5051218;28;20119;-70
2021/11/10 03:25:23;;;;;;;8.70;4.25;;;7.10;94.90;;;;;;5051177;28;20029;-68
2021/11/10 03:27:49;;;;;;;9.07;4.15;;;7.00;94.80;;;;;;5051612;28;20044;-68
2021/11/10 03:30:14;;;;;;;8.93;3.80;;;7.00;94.90;;;;;;5051363;28;20645;-68
2021/11/10 03:32:41;;;;;;;9.43;4.22;;;6.90;94.90;;;;;;5051082;28;20033;-68
2021/11/10 03:35:08;;;;;;;8.60;4.18;;;7.00;95.00;;;;;;5050904;28;20422;-70
2021/11/10 03:37:35;;;;;;;10.20;4.22;;;7.10;94.90;;;;;;5050872;28;20048;-67
2021/11/10 03:40:03;;;;;;;9.77;4.32;;;7.10;95.10;;;;;;5051446;28;20020;-69
2021/11/10 03:42:28;;;;;;;7.43;4.18;;;7.20;95.00;;;;;;5050923;28;20391;-67
2021/11/10 03:44:54;;;;;;;13.18;4.40;;;7.20;94.90;;;;;;5050844;28;20305;-69
2021/11/10 03:47:19;;;;;;;9.23;4.55;;;7.20;94.90;;;;;;5050768;28;20517;-68
2021/11/10 03:49:45;;;;;;;15.95;4.47;;;7.20;95.00;;;;;;5050687;28;20032;-68
2021/11/10 03:52:14;;;;;;;9.77;4.13;;;7.10;94.90;;;;;;5050973;28;20021;-68
2021/11/10 03:54:41;;;;;;;6.70;3.97;;;7.10;94.70;;;;;;5050716;28;20044;-69
2021/11/10 03:57:06;;;;;;;9.32;4.30;;;7.00;94.60;;;;;;5050911;28;20037;-69
2021/11/10 03:59:32;;;;;;;8.30;4.47;;;6.90;94.70;;;;;;5050568;28;20138;-70
2021/11/10 04:01:57;;;;;;;12.30;4.50;;;6.90;94.80;;;;;;5050600;28;20028;-69
2021/11/10 04:04:23;;;;;;;9.88;4.38;;;6.80;94.70;;;;;;5050491;28;20032;-68
2021/11/10 04:06:49;;;;;;;12.45;4.50;;;6.70;94.80;;;;;;5050865;28;20039;-67
2021/11/10 04:09:15;;;;;;;8.38;3.72;;;6.70;95.10;;;;;;5050349;28;20456;-67
2021/11/10 04:11:40;;;;;;;7.15;3.53;;;6.70;95.10;;;;;;5050519;28;20795;-69
2021/11/10 04:14:06;;;;;;;8.50;4.30;;;6.70;95.10;;;;;;5050626;28;20045;-68
2021/11/10 04:16:32;;;;;;;8.23;4.28;;;6.70;95.10;;;;;;5050275;28;20064;-68
2021/11/10 04:18:58;;;;;;;14.45;4.75;;;6.80;95.10;;;;;;5050686;28;20103;-68
2021/11/10 04:21:26;;;;;;;9.77;4.47;;;6.70;95.00;;;;;;5050281;28;20469;-68
2021/11/10 04:23:53;;;;;;;10.50;4.27;;;6.70;95.10;;;;;;5050485;28;20036;-69
2021/11/10 04:26:20;;;;;;;8.82;4.45;;;6.70;95.10;;;;;;5048956;28;20826;-67
2021/11/10 04:28:46;;;;;;;7.65;4.10;;;6.70;95.20;;;;;;5049902;28;20025;-69
2021/11/10 04:31:12;;;;;;;9.35;4.30;;;6.70;95.20;;;;;;5050559;28;20104;-68
2021/11/10 04:33:38;;;;;;;10.30;3.75;;;6.60;95.20;;;;;;5049938;28;20368;-68
2021/11/10 04:36:05;;;;;;;9.88;4.60;;;6.70;95.20;;;;;;5050009;28;20028;-69
2021/11/10 04:38:31;;;;;;;11.35;4.47;;;6.80;95.40;;;;;;5050051;28;20053;-69
2021/11/10 04:40:56;;;;;;;9.13;4.10;;;6.70;95.30;;;;;;5049881;28;20071;-69
2021/11/10 04:43:22;;;;;;;14.27;4.72;;;6.60;95.20;;;;;;5049534;28;20039;-68
2021/11/10 04:45:54;;;;;;;10.32;4.32;;;6.60;95.20;;;;;;5050255;28;20029;-68
2021/11/10 04:48:19;;;;;;;6.55;4.00;;;6.40;95.10;;;;;;5049764;28;20112;-67
2021/11/10 04:50:47;;;;;;;7.18;4.00;;;6.50;95.40;;;;;;5049963;28;20168;-69
2021/11/10 04:53:13;;;;;;;11.35;4.80;;;6.50;95.30;;;;;;5049942;28;20139;-68
2021/11/10 04:55:41;;;;;;;8.85;4.30;;;6.40;95.40;;;;;;5053995;28;20044;-68
2021/11/10 04:58:06;;;;;;;9.17;4.53;;;6.40;95.40;;;;;;5054283;28;20065;-68
2021/11/10 05:00:32;;;;;;;7.60;3.95;;;6.40;95.30;;;;;;5053848;28;20052;-68
2021/11/10 05:02:58;;;;;;;7.18;4.15;;;6.40;95.40;;;;;;5053867;28;20033;-69
2021/11/10 05:05:23;;;;;;;11.40;4.47;;;6.40;95.50;;;;;;5052825;28;20056;-68
2021/11/10 05:07:49;;;;;;;7.97;4.50;;;6.40;95.50;;;;;;5053887;28;20087;-67
2021/11/10 05:10:17;;;;;;;7.60;3.97;;;6.40;95.60;;;;;;5054211;28;20111;-69
2021/11/10 05:12:45;;;;;;;10.27;4.25;;;6.40;95.50;;;;;;5053685;28;20076;-67
2021/11/10 05:15:11;;;;;;;12.00;4.78;;;6.50;95.60;;;;;;5053734;28;20048;-67
2021/11/10 05:17:37;;;;;;;10.85;4.40;;;6.60;95.50;;;;;;5053976;28;20029;-68
2021/11/10 05:20:04;;;;;;;9.82;4.40;;;6.60;95.30;;;;;;5053654;28;20083;-69
2021/11/10 05:22:29;;;;;;;9.32;3.67;;;6.60;95.40;;;;;;5053567;28;20048;-68
2021/11/10 05:24:55;;;;;;;6.53;4.22;;;6.70;95.50;;;;;;5054309;28;20056;-67
2021/11/10 05:27:21;;;;;;;8.20;3.90;;;6.70;95.40;;;;;;5053519;28;20025;-69
2021/11/10 05:29:46;;;;;;;9.20;4.07;;;6.70;95.40;;;;;;5052927;28;20140;-69
2021/11/10 05:32:12;;;;;;;9.75;4.13;;;6.80;95.50;;;;;;5053309;28;20040;-70
2021/11/10 05:34:38;;;;;;;11.90;4.65;;;6.70;95.40;;;;;;5052900;28;20036;-68
2021/11/10 05:37:04;;;;;;;10.40;5.68;;;6.80;95.40;;;;;;5053773;28;20082;-68
2021/11/10 05:39:29;;;;;;;9.70;4.55;;;6.70;95.20;;;;;;5053059;28;20029;-70
2021/11/10 05:41:55;;;;;;;12.70;4.68;;;6.70;95.20;;;;;;5053380;28;20108;-70
2021/11/10 05:44:21;;;;;;;9.25;4.53;;;6.50;95.10;;;;;;5052096;28;20471;-68
2021/11/10 05:46:46;;;;;;;16.92;4.30;;;6.50;95.30;;;;;;5053101;28;20037;-68
2021/11/10 05:49:12;;;;;;;10.10;4.20;;;6.50;95.40;;;;;;5053366;28;20040;-67
2021/11/10 05:51:37;;;;;;;7.47;4.43;;;6.50;95.30;;;;;;5052880;28;20037;-68
2021/11/10 05:54:04;;;;;;;13.00;4.75;;;6.60;95.40;;;;;;5052827;28;20029;-70
2021/11/10 05:56:33;;;;;;;13.88;5.40;;;6.50;95.40;;;;;;5053056;28;20021;-67
2021/11/10 05:59:00;;;;;;;10.98;4.15;;;6.50;95.30;;;;;;5052538;28;20068;-68
2021/11/10 06:01:27;;;;;;;16.52;5.78;;;6.60;95.40;;;;;;5052459;28;20099;-68
2021/11/10 06:03:54;;;;;;;9.15;4.03;;;6.60;95.30;;;;;;5053066;28;20074;-70
2021/11/10 06:06:25;;;;;;;7.05;3.67;;;6.60;95.40;;;;;;5051799;28;20455;-68
2021/11/10 06:08:51;;;;;;;10.48;3.90;;;6.60;95.30;;;;;;5052489;28;20344;-68
2021/11/10 06:11:17;;;;;;;8.73;4.22;;;6.80;95.30;;;;;;5052242;28;20035;-68
2021/11/10 06:13:42;;;;;;;7.35;4.15;;;6.70;95.30;;;;;;5052316;28;20044;-68
2021/11/10 06:16:09;;;;;;;17.10;4.45;;;6.60;95.30;;;;;;5052754;28;20044;-68
2021/11/10 06:18:34;;;;;;;7.72;3.95;;;6.60;95.30;;;;;;5052422;28;20167;-68
2021/11/10 06:21:01;;;;;;;11.80;4.20;;;6.60;95.30;;;;;;5052330;28;20116;-68
2021/11/10 06:23:28;;;;;;;12.93;4.50;;;6.60;95.30;;;;;;5052215;28;20044;-68
2021/11/10 06:25:54;;;;;;;9.30;3.97;;;6.50;95.30;;;;;;5050931;28;20017;-68
2021/11/10 06:28:19;;;;;;;6.68;4.18;;;6.50;95.20;;;;;;5052092;28;20043;-68
2021/11/10 06:30:45;;;;;;;11.13;4.22;;;6.50;95.30;;;;;;5052892;28;20028;-67
2021/11/10 06:33:11;;;;;;;10.98;3.97;;;6.50;95.30;;;;;;5052151;28;20198;-68
2021/11/10 06:35:37;;;;;;;9.98;4.35;;;6.40;95.40;;;;;;5051986;28;20044;-69
2021/11/10 06:38:03;;;;;;;6.40;3.65;;;6.30;95.50;;;;;;5051911;28;20159;-68
2021/11/10 06:40:28;;;;;;;13.20;4.28;;;6.30;95.50;;;;;;5051694;28;20070;-67
2021/11/10 06:42:54;;;;;;;16.20;7.50;;;6.30;95.70;;;;;;5052393;28;20053;-67
2021/11/10 06:45:20;;;;;;;11.00;4.97;;;6.30;95.70;;;;;;5051123;28;20053;-67
2021/11/10 06:47:47;;;;;;;14.35;5.10;;;6.20;95.70;;;;;;5051057;28;20468;-68
2021/11/10 06:50:14;;;;;;;12.95;4.93;;;6.20;96.00;;;;;;5052010;28;20037;-68
2021/11/10 06:52:39;;;;;;;12.82;5.00;;;6.30;95.90;;;;;;5051808;28;20064;-69
2021/11/10 06:55:06;;;;;;;14.45;5.13;;;6.30;95.80;;;;;;5051997;28;20056;-69
2021/11/10 06:57:32;;;;;;;9.70;4.18;;;6.30;95.60;;;;;;5051660;28;20064;-69
2021/11/10 06:59:58;;;;;;;11.38;4.30;;;6.30;95.80;;;;;;5050188;28;20068;-68
2021/11/10 07:02:24;;;;;;;11.23;4.55;;;6.40;95.80;;;;;;5051648;28;20367;-68
2021/11/10 07:04:49;;;;;;;9.38;4.13;;;6.40;95.80;;;;;;5051548;28;20040;-68
2021/11/10 07:07:16;;;;;;;7.28;4.00;;;6.60;96.00;;;;;;5051921;28;20362;-69
2021/11/10 07:09:42;;;;;;;10.68;4.40;;;6.60;95.90;;;;;;5051647;28;20037;-69
2021/11/10 07:12:08;;;;;;;9.70;4.22;;;6.70;95.80;;;;;;5051057;28;20414;-69
2021/11/10 07:14:33;;;;;;;10.35;4.85;;;6.70;95.80;;;;;;5051512;28;20044;-69
2021/11/10 07:16:59;;;;;;;12.52;5.03;;;6.70;95.90;;;;;;5050547;28;20029;-69
2021/11/10 07:19:25;;;;;;;8.75;4.43;;;6.80;96.00;;;;;;5051233;28;20018;-69
2021/11/10 07:21:51;;;;;;;15.68;4.15;;;6.90;95.70;;;;;;5051436;28;20032;-69
2021/11/10 07:24:16;;;;;;;11.35;4.82;;;6.90;95.70;;;;;;5049965;28;20036;-70
2021/11/10 07:26:42;;;;;;;10.27;4.82;;;6.90;95.90;;;;;;5051121;28;20045;-69
2021/11/10 07:29:08;;;;;;;9.35;4.72;;;6.90;95.90;;;;;;5051007;28;20416;-69
2021/11/10 07:31:33;;;;;;;12.27;3.95;;;6.90;95.80;;;;;;5051001;28;20108;-69
2021/11/10 07:34:00;;;;;;;13.85;5.18;;;7.00;95.60;;;;;;5049994;28;20032;-70
2021/11/10 07:36:29;;;;;;;11.00;5.28;;;7.00;95.60;;;;;;5050885;28;20056;-68
2021/11/10 07:38:56;;;;;;;10.38;3.90;;;7.10;95.50;;;;;;5050856;28;20041;-69
2021/11/10 07:41:26;;;;;;;8.18;4.38;;;7.20;95.40;;;;;;5049641;28;20029;-70
2021/11/10 07:43:53;;;;;;;11.80;4.43;;;7.30;95.40;;;;;;5051056;28;20082;-68
2021/11/10 07:46:20;;;;;;;11.53;4.37;;;7.20;95.40;;;;;;5050829;28;20045;-69
2021/11/10 07:48:47;;;;;;;9.32;4.10;;;7.30;95.50;;;;;;5051188;28;20342;-69
2021/11/10 07:51:17;;;;;;;9.32;4.45;;;7.30;95.40;;;;;;5050552;28;20045;-68
2021/11/10 07:53:43;;;;;;;9.95;4.38;;;7.40;95.30;;;;;;5049481;28;20483;-70
2021/11/10 07:56:09;;;;;;;8.13;4.05;;;7.40;95.20;;;;;;5049353;28;20033;-70
2021/11/10 07:58:35;;;;;;;10.77;4.00;;;7.40;95.40;;;;;;5050472;28;20029;-69
2021/11/10 08:01:01;;;;;;;11.35;4.10;;;7.50;95.30;;;;;;5050713;28;20037;-69
2021/11/10 08:03:26;;;;;;;10.60;4.63;;;7.60;95.10;;;;;;5050429;28;20510;-69
2021/11/10 08:05:52;;;;;;;7.60;4.35;;;7.60;95.10;;;;;;5050235;28;20124;-68
2021/11/10 08:08:17;;;;;;;7.97;3.83;;;7.60;95.10;;;;;;5050533;28;20051;-70
2021/11/10 08:10:44;;;;;;;12.85;4.22;;;7.60;95.00;;;;;;5050467;28;20043;-68
2021/11/10 08:13:10;;;;;;;10.07;4.03;;;7.70;95.00;;;;;;5050151;28;20052;-69
2021/11/10 08:15:36;;;;;;;20.38;8.35;;;7.80;94.90;;;;;;5050278;28;20093;-69
2021/11/10 08:18:03;;;;;;;13.57;5.13;;;7.90;94.80;;;;;;5050120;28;20037;-69
2021/11/10 08:20:29;;;;;;;9.50;4.80;;;8.00;94.80;;;;;;5050333;28;20162;-68
2021/11/10 08:22:55;;;;;;;13.73;4.28;;;8.00;94.60;;;;;;5050056;28;20112;-69
2021/11/10 08:25:21;;;;;;;8.88;4.18;;;8.10;94.50;;;;;;5050336;28;20359;-69
2021/11/10 08:27:47;;;;;;;8.73;3.72;;;8.20;94.50;;;;;;5050197;28;20450;-69
2021/11/10 08:30:17;;;;;;;13.10;4.32;;;8.30;94.40;;;;;;5049832;28;20120;-68
2021/11/10 08:32:44;;;;;;;9.02;3.42;;;8.40;94.10;;;;;;5050124;28;20094;-68
2021/11/10 08:35:09;;;;;;;13.32;3.40;;;8.50;94.20;;;;;;5049949;28;20077;-69
2021/11/10 08:37:36;;;;;;;11.18;3.85;;;8.50;93.80;;;;;;5049889;28;20091;-69
2021/11/10 08:40:04;;;;;;;6.70;3.15;;;8.60;93.90;;;;;;5049067;28;20481;-68
2021/11/10 08:42:33;;;;;;;8.38;3.47;;;8.70;93.70;;;;;;5049522;28;20048;-69
2021/11/10 08:45:22;;;;;;;8.25;3.20;;;8.70;93.60;;;;;;5048485;28;20025;-69
2021/11/10 08:47:57;;;;;;;14.23;3.72;;;8.90;93.50;;;;;;5048573;28;20366;-69
2021/11/10 08:50:26;;;;;;;12.20;4.07;;;8.90;93.40;;;;;;5049665;28;20128;-68
2021/11/10 08:52:52;;;;;;;9.15;3.83;;;9.00;93.40;;;;;;5049867;28;20373;-68
2021/11/10 08:55:19;;;;;;;7.07;3.75;;;9.10;93.10;;;;;;5050267;28;20021;-69
2021/11/10 08:57:46;;;;;;;14.52;4.47;;;9.20;93.10;;;;;;5050065;28;20462;-69
2021/11/10 09:00:17;;;;;;;7.97;3.58;;;9.30;93.00;;;;;;5048500;28;20530;-68
2021/11/10 09:02:44;;;;;;;10.88;4.20;;;9.40;93.00;;;;;;5049626;28;20113;-69
2021/11/10 09:05:10;;;;;;;15.15;6.90;;;9.50;92.80;;;;;;5049477;28;20053;-70
2021/11/10 09:07:36;;;;;;;10.15;4.00;;;9.50;92.60;;;;;;5048089;28;20174;-67
2021/11/10 09:10:05;;;;;;;15.10;3.90;;;9.60;92.70;;;;;;5050252;28;20021;-69
2021/11/10 09:12:30;;;;;;;8.77;3.55;;;9.80;92.60;;;;;;5049343;28;20037;-69
2021/11/10 09:14:56;;;;;;;9.70;3.72;;;9.80;92.40;;;;;;5049720;28;20636;-69
2021/11/10 09:17:21;;;;;;;9.00;3.00;;;9.80;92.30;;;;;;5049771;28;20052;-69
2021/11/10 09:19:47;;;;;;;11.52;3.97;;;9.80;92.20;;;;;;5049630;28;20072;-67
2021/11/10 09:22:13;;;;;;;7.22;3.33;;;9.80;92.10;;;;;;5048547;28;20060;-69
2021/11/10 09:24:39;;;;;;;10.35;3.72;;;9.80;92.00;;;;;;5049474;28;20256;-68
2021/11/10 09:27:05;;;;;;;6.63;3.83;;;9.80;91.90;;;;;;5049152;28;20466;-69
2021/11/10 09:29:32;;;;;;;8.63;4.10;;;9.80;92.00;;;;;;5049176;28;20119;-72
2021/11/10 09:31:58;;;;;;;12.18;3.97;;;9.90;92.10;;;;;;5049695;28;20040;-68
2021/11/10 09:34:25;;;;;;;9.82;3.78;;;9.90;92.20;;;;;;5047993;28;20120;-68
2021/11/10 09:36:52;;;;;;;12.13;4.07;;;9.90;92.10;;;;;;5049862;28;20013;-72
2021/11/10 09:39:20;;;;;;;9.85;3.65;;;10.00;91.60;;;;;;5049406;28;20040;-67
2021/11/10 09:41:46;;;;;;;;;;;9.90;92.00;;;;;;5053113;28;20374;-70
2021/11/10 09:44:12;;;;;;;16.98;4.68;;;10.00;91.70;;;;;;5052941;28;19958;-68
2021/11/10 09:46:38;;;;;;;12.45;4.72;;;10.10;92.00;;;;;;5052781;28;20056;-69
2021/11/10 09:49:05;;;;;;;10.18;4.25;;;10.10;92.10;;;;;;5052333;28;20079;-68
2021/11/10 09:51:31;;;;;;;14.48;5.55;;;10.10;91.80;;;;;;5051502;28;20148;-68
2021/11/10 09:53:58;;;;;;;13.48;4.40;;;10.20;91.70;;;;;;5053055;28;20088;-70
2021/11/10 09:56:24;;;;;;;29.40;14.88;;;10.20;91.50;;;;;;5052934;28;20017;-69
2021/11/10 09:58:51;;;;;;;24.13;9.65;;;10.30;91.70;;;;;;5053043;28;20040;-70
2021/11/10 10:01:18;;;;;;;11.33;4.10;;;10.30;91.50;;;;;;5053319;28;20045;-68
2021/11/10 10:03:46;;;;;;;11.88;3.80;;;10.40;91.50;;;;;;5052760;28;20098;-69
2021/11/10 10:06:13;;;;;;;7.07;3.78;;;10.40;91.20;;;;;;5052438;28;20033;-69
2021/11/10 10:08:40;;;;;;;9.65;3.97;;;10.50;91.10;;;;;;5052421;28;20371;-69
2021/11/10 10:11:06;;;;;;;19.23;8.68;;;10.50;90.90;;;;;;5052425;28;20047;-69
2021/11/10 10:13:31;;;;;;;10.57;3.97;;;10.60;91.20;;;;;;5052061;28;20071;-69
2021/11/10 10:15:57;;;;;;;12.90;4.43;;;10.70;90.90;;;;;;5052717;28;20455;-69
2021/11/10 10:18:26;;;;;;;11.60;4.13;;;10.80;90.80;;;;;;5051121;28;20431;-68
2021/11/10 10:20:54;;;;;;;8.15;3.55;;;10.90;90.90;;;;;;5051316;28;20021;-68
2021/11/10 10:23:22;;;;;;;7.03;3.88;;;11.10;90.80;;;;;;5052211;28;20032;-68
2021/11/10 10:26:00;;;;;;;11.77;3.72;;;11.50;90.80;;;;;;5051215;28;20095;-68
2021/11/10 10:28:26;;;;;;;6.68;3.70;;;12.20;90.30;;;;;;5052119;28;20023;-69
2021/11/10 10:31:07;;;;;;;12.30;3.78;;;13.30;88.10;;;;;;5052681;28;20033;-70
2021/11/10 10:33:42;;;;;;;5.82;3.63;;;14.50;86.40;;;;;;5052081;28;20103;-69
2021/11/10 10:36:14;;;;;;;5.55;3.22;;;15.50;83.80;;;;;;5052104;28;20037;-69
2021/11/10 10:38:51;;;;;;;6.57;3.00;;;16.50;81.80;;;;;;5052207;28;20033;-70
2021/11/10 10:41:19;;;;;;;6.93;2.92;;;16.80;78.20;;;;;;5051906;28;20037;-69
2021/11/10 10:43:48;;;;;;;7.97;3.15;;;17.30;77.80;;;;;;5051992;28;20029;-69
2021/11/10 10:46:15;;;;;;;8.50;3.55;;;18.00;75.40;;;;;;5052390;28;20013;-67
2021/11/10 10:48:41;;;;;;;7.67;3.20;;;18.50;75.30;;;;;;5050269;28;20346;-70
2021/11/10 10:51:17;;;;;;;5.10;2.80;;;18.80;73.10;;;;;;5050166;28;20025;-70
2021/11/10 10:53:46;;;;;;;7.57;2.90;;;19.00;70.30;;;;;;5050606;28;20033;-70
2021/11/10 10:56:18;;;;;;;5.28;2.65;;;19.70;68.80;;;;;;5051797;28;20064;-69
2021/11/10 10:58:45;;;;;;;8.43;3.20;;;19.90;67.10;;;;;;5051971;28;20060;-69
2021/11/10 11:01:42;;;;;;;34.92;18.73;;;20.20;65.50;;;;;;5051446;28;20031;-70
2021/11/10 11:04:20;;;;;;;5.80;3.07;;;20.30;64.70;;;;;;5051208;28;20060;-68
2021/11/10 11:06:57;;;;;;;;;;;20.80;63.10;;;;;;5052280;28;20336;-69
2021/11/10 11:09:27;;;;;;;7.35;2.58;;;20.90;62.40;;;;;;5051625;28;19912;-70
2021/11/10 11:12:12;;;;;;;5.47;3.08;;;20.70;60.50;;;;;;5051339;28;20047;-69
2021/11/10 11:14:52;;;;;;;6.25;2.65;;;20.50;60.60;;;;;;5051442;28;20044;-69
2021/11/10 11:17:26;;;;;;;7.00;3.33;;;19.90;62.30;;;;;;5051246;28;20035;-69
2021/11/10 11:19:56;;;;;;;8.05;3.35;;;19.50;62.30;;;;;;5051452;28;20477;-70
2021/11/10 11:22:30;;;;;;;6.15;3.17;;;18.80;62.50;;;;;;5051291;28;20362;-70
2021/11/10 11:25:05;;;;;;;6.40;2.90;;;18.50;64.30;;;;;;5051649;28;20027;-69
2021/11/10 11:27:31;;;;;;;8.88;3.65;;;18.00;65.30;;;;;;5050814;28;20033;-67
2021/11/10 11:30:13;;;;;;;6.63;2.88;;;17.30;65.10;;;;;;5050996;28;20029;-67
2021/11/10 11:32:45;;;;;;;18.20;9.65;;;16.80;68.00;;;;;;5050918;28;20037;-67
2021/11/10 11:35:25;;;;;;;17.42;9.40;;;16.50;68.40;;;;;;5050853;28;20037;-67
2021/11/10 11:37:53;;;;;;;8.88;4.43;;;16.20;70.10;;;;;;5050414;28;20431;-68
2021/11/10 11:40:20;;;;;;;10.85;3.20;;;16.10;70.00;;;;;;5050955;28;20108;-67
2021/11/10 11:42:54;;;;;;;4.32;2.50;;;15.90;70.20;;;;;;5051018;28;20106;-67
2021/11/10 11:45:24;;;;;;;8.40;3.10;;;15.80;70.10;;;;;;5049629;28;20036;-67
2021/11/10 11:47:52;;;;;;;7.53;2.90;;;15.60;70.20;;;;;;5050476;28;20362;-67
2021/11/10 11:50:18;;;;;;;;;;;15.40;70.70;;;;;;5051182;28;20426;-68
2021/11/10 11:52:46;;;;;;;6.88;4.22;;;15.40;71.50;;;;;;5049410;28;19918;-66
2021/11/10 11:55:12;;;;;;;5.70;3.10;;;15.30;72.30;;;;;;5051005;28;20025;-69
2021/11/10 11:57:39;;;;;;;8.25;3.33;;;15.30;72.80;;;;;;5050454;28;20037;-70
2021/11/10 12:00:06;;;;;;;6.60;3.33;;;15.00;73.60;;;;;;5050666;28;20029;-69
2021/11/10 12:02:49;;;;;;;7.28;3.25;;;14.90;74.00;;;;;;5050268;28;20477;-70
2021/11/10 12:05:23;;;;;;;8.65;3.42;;;15.00;74.30;;;;;;5050823;28;20025;-71
2021/11/10 12:07:51;;;;;;;8.02;3.22;;;15.00;74.80;;;;;;5050629;28;20033;-70
2021/11/10 12:10:22;;;;;;;11.15;4.90;;;14.80;75.10;;;;;;5050700;28;20021;-71
2021/11/10 12:13:14;;;;;;;7.70;4.07;;;14.80;75.20;;;;;;5050218;28;20426;-71
2021/11/10 12:16:06;;;;;;;14.93;4.65;;;14.80;75.00;;;;;;5050585;28;20327;-70
2021/11/10 12:18:43;;;;;;;8.73;4.63;;;14.60;75.30;;;;;;5049801;28;20041;-70
2021/11/10 12:21:09;;;;;;;8.93;4.00;;;14.40;76.00;;;;;;5050655;28;20117;-71
2021/11/10 12:23:50;;;;;;;9.50;3.42;;;14.20;76.60;;;;;;5050865;28;20111;-70
2021/11/10 12:26:17;;;;;;;9.13;3.65;;;14.00;77.40;;;;;;5050770;28;20167;-71
2021/11/10 12:28:57;;;;;;;6.60;3.53;;;13.90;77.60;;;;;;5050332;28;20037;-71
2021/11/10 12:31:38;;;;;;;11.25;4.45;;;13.80;78.00;;;;;;5050598;28;20151;-71
2021/11/10 12:34:25;;;;;;;11.35;4.10;;;13.70;78.00;;;;;;5050883;28;20021;-70
2021/11/10 12:36:58;;;;;;;7.30;3.22;;;13.70;77.90;;;;;;5050384;28;20147;-70
2021/11/10 12:39:40;;;;;;;10.77;4.10;;;13.60;78.10;;;;;;5050169;28;20117;-70
2021/11/10 12:42:14;;;;;;;10.50;4.25;;;13.60;78.60;;;;;;5050225;28;20032;-70
2021/11/10 12:44:49;;;;;;;9.98;3.90;;;13.50;78.80;;;;;;5050364;28;20045;-70
2021/11/10 12:47:48;;;;;;;14.77;4.18;;;13.40;79.40;;;;;;5050547;28;20025;-70
2021/11/10 12:50:36;;;;;;;10.88;3.40;;;13.40;79.40;;;;;;5050650;28;20671;-70
2021/11/10 12:53:03;;;;;;;;;;;13.30;79.70;;;;;;5050929;28;20052;-70
2021/11/10 12:55:31;;;;;;;8.40;4.00;;;13.20;80.10;;;;;;5050023;28;19944;-67